createdAt,value
2018-09-13T00:02:22.905Z,100553.06
2018-09-13T00:04:55.764Z,100545.23
2018-09-13T00:07:28.304Z,100546.36
2018-09-13T00:10:02.400Z,100544.34
2018-09-13T00:12:34.894Z,100542.13
2018-09-13T00:15:07.845Z,100541.56
2018-09-13T00:17:40.363Z,100544.83
2018-09-13T00:20:12.990Z,100541.28
2018-09-13T00:22:45.901Z,100537.59
2018-09-13T00:25:19.340Z,100539.30
2018-09-13T00:27:51.861Z,100541.63
2018-09-13T00:30:24.892Z,100539.47
2018-09-13T00:32:57.387Z,100549.71
2018-09-13T00:35:30.188Z,100551.07
2018-09-13T00:38:03.224Z,100551.98
2018-09-13T00:40:35.813Z,100551.11
2018-09-13T00:43:08.308Z,100545.42
2018-09-13T00:45:41.131Z,100544.61
2018-09-13T00:48:13.733Z,100547.45
2018-09-13T00:50:46.338Z,100553.62
2018-09-13T00:53:19.491Z,100558.34
2018-09-13T00:55:52.111Z,100548.64
2018-09-13T00:58:24.709Z,100553.41
2018-09-13T01:01:00.251Z,100550.79
2018-09-13T01:03:32.868Z,100549.48
2018-09-13T01:06:05.590Z,100552.89
2018-09-13T01:08:39.637Z,100556.33
2018-09-13T01:11:12.292Z,100550.43
2018-09-13T01:13:44.836Z,100549.89
2018-09-13T01:16:17.836Z,100549.18
2018-09-13T01:18:51.668Z,100544.44
2018-09-13T01:21:26.772Z,100547.00
2018-09-13T01:24:00.856Z,100551.01
2018-09-13T01:26:33.464Z,100550.49
2018-09-13T01:29:06.072Z,100543.50
2018-09-13T01:31:40.033Z,100538.98
2018-09-13T01:34:13.501Z,100536.66
2018-09-13T01:36:46.264Z,100534.59
2018-09-13T01:39:19.196Z,100529.09
2018-09-13T01:41:51.840Z,100531.22
2018-09-13T01:44:24.380Z,100523.94
2018-09-13T01:46:57.572Z,100521.57
2018-09-13T01:49:30.160Z,100520.25
2018-09-13T01:52:03.614Z,100514.92
2018-09-13T01:54:37.262Z,100513.22
2018-09-13T01:57:09.844Z,100502.84
2018-09-13T01:59:42.739Z,100497.80
2018-09-13T02:02:15.690Z,100494.39
2018-09-13T02:04:48.289Z,100491.66
2018-09-13T02:07:22.904Z,100489.34
2018-09-13T02:09:56.751Z,100484.45
2018-09-13T02:12:29.249Z,100486.41
2018-09-13T02:15:03.465Z,100482.48
2018-09-13T02:17:36.450Z,100472.92
2018-09-13T02:20:09.216Z,100472.94
2018-09-13T02:22:41.817Z,100473.30
2018-09-13T02:25:14.781Z,100478.76
2018-09-13T02:27:47.355Z,100474.28
2018-09-13T02:30:19.857Z,100471.26
2018-09-13T02:32:52.831Z,100472.78
2018-09-13T02:35:25.473Z,100469.20
2018-09-13T02:37:57.988Z,100466.48
2018-09-13T02:40:30.818Z,100470.00
2018-09-13T02:43:03.372Z,100473.61
2018-09-13T02:45:35.956Z,100470.34
2018-09-13T02:48:08.847Z,100467.45
2018-09-13T02:50:41.261Z,100465.92
2018-09-13T02:53:13.813Z,100464.81
2018-09-13T02:55:46.644Z,100463.28
2018-09-13T02:58:19.299Z,100467.79
2018-09-13T03:00:51.617Z,100468.12
2018-09-13T03:03:24.480Z,100468.36
2018-09-13T03:05:57.112Z,100474.00
2018-09-13T03:08:29.692Z,100478.18
2018-09-13T03:11:02.885Z,100474.80
2018-09-13T03:13:35.296Z,100462.42
2018-09-13T03:16:08.320Z,100465.39
2018-09-13T03:18:43.066Z,100456.23
2018-09-13T03:21:15.376Z,100453.14
2018-09-13T03:23:48.568Z,100455.22
2018-09-13T03:26:23.288Z,100460.81
2018-09-13T03:28:56.650Z,100459.22
2018-09-13T03:31:29.020Z,100459.72
2018-09-13T03:34:02.232Z,100465.91
2018-09-13T03:36:35.104Z,100462.20
2018-09-13T03:39:10.683Z,100464.50
2018-09-13T03:41:43.301Z,100464.05
2018-09-13T03:44:15.650Z,100466.50
2018-09-13T03:46:47.996Z,100463.75
2018-09-13T03:49:20.612Z,100466.53
2018-09-13T03:51:52.972Z,100460.94
2018-09-13T03:54:25.312Z,100458.61
2018-09-13T03:56:58.148Z,100459.57
2018-09-13T03:59:30.868Z,100460.03
2018-09-13T04:02:03.264Z,100462.45
2018-09-13T04:04:35.640Z,100463.74
2018-09-13T04:07:13.748Z,100461.04
2018-09-13T04:09:46.173Z,100465.72
2018-09-13T04:12:18.530Z,100469.55
2018-09-13T04:14:51.327Z,100471.26
2018-09-13T04:17:23.708Z,100471.48
2018-09-13T04:19:56.087Z,100475.55
2018-09-13T04:22:29.945Z,100474.78
2018-09-13T04:25:03.528Z,100475.07
2018-09-13T04:27:35.915Z,100471.41
2018-09-13T04:30:08.689Z,100463.19
2018-09-13T04:32:41.589Z,100461.22
2018-09-13T04:35:14.942Z,100459.84
2018-09-13T04:37:47.612Z,100461.11
2018-09-13T04:40:19.994Z,100465.92
2018-09-13T04:42:53.820Z,100463.16
2018-09-13T04:45:26.378Z,100467.43
2018-09-13T04:47:58.947Z,100467.76
2018-09-13T04:50:31.712Z,100467.20
2018-09-13T04:53:04.167Z,100468.99
2018-09-13T04:55:36.564Z,100471.94
2018-09-13T04:58:09.274Z,100476.47
2018-09-13T05:00:42.424Z,100477.98
2018-09-13T05:03:15.961Z,100481.88
2018-09-13T05:05:50.084Z,100475.98
2018-09-13T05:08:23.134Z,100476.20
2018-09-13T05:10:55.576Z,100480.50
2018-09-13T05:13:28.388Z,100478.62
2018-09-13T05:16:00.770Z,100479.79
2018-09-13T05:18:34.017Z,100481.80
2018-09-13T05:21:06.777Z,100484.30
2018-09-13T05:23:39.881Z,100489.02
2018-09-13T05:26:12.233Z,100483.72
2018-09-13T05:28:45.919Z,100486.45
2018-09-13T05:31:18.837Z,100484.81
2018-09-13T05:33:51.236Z,100481.83
2018-09-13T05:36:23.687Z,100484.69
2018-09-13T05:38:56.047Z,100485.33
2018-09-13T05:41:28.407Z,100488.76
2018-09-13T05:44:01.216Z,100485.84
2018-09-13T05:46:35.597Z,100484.34
2018-09-13T05:49:09.845Z,100479.56
2018-09-13T05:51:44.611Z,100483.51
2018-09-13T05:54:17.763Z,100492.34
2018-09-13T05:56:50.507Z,100493.98
2018-09-13T05:59:22.840Z,100491.55
2018-09-13T06:01:56.630Z,100494.33
2018-09-13T06:04:30.151Z,100495.25
2018-09-13T06:07:04.841Z,100504.77
2018-09-13T06:09:37.132Z,100500.56
2018-09-13T06:12:09.509Z,100501.64
2018-09-13T06:14:43.443Z,100501.85
2018-09-13T06:17:16.653Z,100494.28
2018-09-13T06:19:50.441Z,100493.03
2018-09-13T06:22:24.276Z,100495.59
2018-09-13T06:24:57.062Z,100497.58
2018-09-13T06:27:29.579Z,100497.98
2018-09-13T06:30:03.315Z,100495.55
2018-09-13T06:32:36.045Z,100495.27
2018-09-13T06:35:09.314Z,100491.04
2018-09-13T06:37:42.507Z,100489.95
2018-09-13T06:40:17.572Z,100492.66
2018-09-13T06:42:49.975Z,100490.77
2018-09-13T06:45:23.373Z,100496.86
2018-09-13T06:47:56.314Z,100502.83
2018-09-13T06:50:28.693Z,100504.98
2018-09-13T06:53:01.136Z,100506.99
2018-09-13T06:55:33.768Z,100505.19
2018-09-13T06:58:06.159Z,100505.13
2018-09-13T07:00:38.625Z,100505.14
2018-09-13T07:03:15.538Z,100508.02
2018-09-13T07:05:50.028Z,100507.27
2018-09-13T07:08:23.220Z,100507.14
2018-09-13T07:10:56.120Z,100501.37
2018-09-13T07:13:28.594Z,100504.78
2018-09-13T07:16:01.049Z,100507.66
2018-09-13T07:18:34.943Z,100505.86
2018-09-13T07:21:07.921Z,100501.69
2018-09-13T07:23:40.494Z,100507.30
2018-09-13T07:26:13.267Z,100509.92
2018-09-13T07:28:45.767Z,100510.34
2018-09-13T07:31:18.071Z,100504.63
2018-09-13T07:33:50.925Z,100507.94
2018-09-13T07:36:23.297Z,100516.64
2018-09-13T07:38:58.632Z,100515.73
2018-09-13T07:41:32.758Z,100526.77
2018-09-13T07:44:07.535Z,100526.41
2018-09-13T07:46:41.038Z,100530.50
2018-09-13T07:49:15.212Z,100532.42
2018-09-13T07:51:47.397Z,100528.02
2018-09-13T07:54:19.833Z,100526.43
2018-09-13T07:56:53.881Z,100529.02
2018-09-13T07:59:26.768Z,100534.59
2018-09-13T08:02:00.547Z,100533.29
2018-09-13T08:04:33.544Z,100532.52
2018-09-13T08:07:06.308Z,100529.45
2018-09-13T08:09:38.749Z,100533.95
2018-09-13T08:12:12.667Z,100531.80
2018-09-13T08:14:53.656Z,100530.59
2018-09-13T08:17:30.395Z,100536.08
2018-09-13T08:20:05.340Z,100539.42
2018-09-13T08:22:40.641Z,100540.53
2018-09-13T08:25:15.148Z,100542.88
2018-09-13T08:27:48.943Z,100539.73
2018-09-13T08:30:22.723Z,100543.02
2018-09-13T08:32:55.659Z,100547.59
2018-09-13T08:35:28.688Z,100545.28
2018-09-13T08:38:01.252Z,100547.12
2018-09-13T08:40:33.729Z,100542.16
2018-09-13T08:43:08.615Z,100553.81
2018-09-13T08:45:42.761Z,100550.44
2018-09-13T08:48:16.766Z,100544.91
2018-09-13T08:50:54.309Z,100546.03
2018-09-13T08:53:28.048Z,100547.85
2018-09-13T08:56:02.280Z,100549.78
2018-09-13T08:58:34.603Z,100553.19
2018-09-13T09:01:16.009Z,100550.45
2018-09-13T09:03:48.323Z,100554.36
2018-09-13T09:06:20.740Z,100555.25
2018-09-13T09:08:53.964Z,100553.89
2018-09-13T09:11:28.420Z,100553.45
2018-09-13T09:14:01.758Z,100552.66
2018-09-13T09:16:35.809Z,100553.99
2018-09-13T09:19:08.803Z,100552.16
2018-09-13T09:21:42.097Z,100552.77
2018-09-13T09:24:16.466Z,100551.07
2018-09-13T09:26:48.879Z,100551.05
2018-09-13T09:29:23.207Z,100556.22
2018-09-13T09:31:57.992Z,100553.91
2018-09-13T09:34:30.281Z,100557.77
2018-09-13T09:37:02.757Z,100558.41
2018-09-13T09:39:35.557Z,100562.48
2018-09-13T09:42:10.456Z,100562.22
2018-09-13T09:44:43.339Z,100565.30
2018-09-13T09:47:16.162Z,100562.22
2018-09-13T09:49:49.808Z,100557.55
2018-09-13T09:52:24.435Z,100565.36
2018-09-13T09:54:58.186Z,100564.31
2018-09-13T09:57:30.632Z,100563.52
2018-09-13T10:00:06.150Z,100569.52
2018-09-13T10:02:39.760Z,100571.28
2018-09-13T10:05:12.044Z,100572.25
2018-09-13T10:07:44.416Z,100569.07
2018-09-13T10:10:17.115Z,100571.12
2018-09-13T10:12:49.532Z,100567.92
2018-09-13T10:15:27.888Z,100569.66
2018-09-13T10:18:05.770Z,100567.88
2018-09-13T10:20:44.100Z,100571.44
2018-09-13T10:23:21.863Z,100564.42
2018-09-13T10:26:00.115Z,100566.42
2018-09-13T10:28:37.987Z,100566.55
2018-09-13T10:31:15.921Z,100561.86
2018-09-13T10:33:54.042Z,100562.70
2018-09-13T10:36:32.597Z,100558.50
2018-09-13T10:39:14.365Z,100561.58
2018-09-13T10:41:52.440Z,100556.88
2018-09-13T10:44:30.513Z,100555.73
2018-09-13T10:47:09.156Z,100557.50
2018-09-13T10:49:47.028Z,100559.02
2018-09-13T10:52:24.664Z,100558.47
2018-09-13T10:54:58.138Z,100558.44
2018-09-13T10:57:35.927Z,100561.47
2018-09-13T11:00:07.597Z,100555.92
2018-09-13T11:02:40.073Z,100562.55
2018-09-13T11:05:12.940Z,100562.63
2018-09-13T11:07:45.265Z,100562.93
2018-09-13T11:10:17.789Z,100566.74
2018-09-13T11:13:09.776Z,100562.70
2018-09-13T11:15:54.328Z,100561.92
2018-09-13T11:18:27.339Z,100557.50
2018-09-13T11:21:00.544Z,100559.56
2018-09-13T11:23:34.188Z,100559.41
2018-09-13T11:26:07.580Z,100550.28
2018-09-13T11:28:40.207Z,100554.05
2018-09-13T11:31:12.892Z,100552.95
2018-09-13T11:33:46.182Z,100553.70
2018-09-13T11:36:23.421Z,100554.05
2018-09-13T11:38:55.983Z,100553.14
2018-09-13T11:41:29.601Z,100549.69
2018-09-13T11:44:02.792Z,100548.44
2018-09-13T11:46:37.406Z,100542.55
2018-09-13T11:49:10.328Z,100539.39
2018-09-13T11:51:42.951Z,100539.26
2018-09-13T11:54:16.348Z,100543.70
2018-09-13T11:56:50.520Z,100544.20
2018-09-13T11:59:23.140Z,100546.15
2018-09-13T12:01:55.717Z,100546.22
2018-09-13T12:04:28.538Z,100546.69
2018-09-13T12:07:01.338Z,100544.16
2018-09-13T12:09:33.907Z,100544.41
2018-09-13T12:12:06.531Z,100542.28
2018-09-13T12:14:39.171Z,100538.89
2018-09-13T12:17:11.855Z,100541.41
2018-09-13T12:19:44.401Z,100540.72
2018-09-13T12:22:17.510Z,100540.84
2018-09-13T12:24:49.865Z,100538.09
2018-09-13T12:27:22.604Z,100538.92
2018-09-13T12:29:56.606Z,100538.84
2018-09-13T12:32:29.293Z,100531.59
2018-09-13T12:35:01.964Z,100533.77
2018-09-13T12:37:35.271Z,100533.34
2018-09-13T12:40:09.264Z,100537.45
2018-09-13T12:42:42.244Z,100536.75
2018-09-13T12:45:16.019Z,100532.66
2018-09-13T12:47:48.820Z,100536.52
2018-09-13T12:50:22.897Z,100532.80
2018-09-13T12:52:55.708Z,100528.52
2018-09-13T12:55:36.334Z,100531.34
2018-09-13T12:58:09.000Z,100530.58
2018-09-13T13:00:42.120Z,100534.50
2018-09-13T13:03:16.888Z,100530.27
2018-09-13T13:05:50.376Z,100531.67
2018-09-13T13:08:24.487Z,100532.13
2018-09-13T13:10:57.161Z,100529.83
2018-09-13T13:13:30.026Z,100522.90
2018-09-13T13:16:05.882Z,100517.23
2018-09-13T13:18:40.445Z,100509.26
2018-09-13T13:21:13.017Z,100505.20
2018-09-13T13:23:48.238Z,100503.73
2018-09-13T13:26:20.785Z,100507.12
2018-09-13T13:28:53.632Z,100505.58
2018-09-13T13:31:27.537Z,100507.79
2018-09-13T13:34:00.157Z,100504.56
2018-09-13T13:36:33.336Z,100505.21
2018-09-13T13:39:10.212Z,100493.36
2018-09-13T13:41:43.266Z,100488.36
2018-09-13T13:44:16.293Z,100487.13
2018-09-13T13:46:50.408Z,100483.05
2018-09-13T13:49:23.051Z,100475.92
2018-09-13T13:51:55.960Z,100476.96
2018-09-13T13:54:28.560Z,100476.86
2018-09-13T13:57:01.179Z,100477.84
2018-09-13T13:59:34.983Z,100471.31
2018-09-13T14:02:08.281Z,100472.16
2018-09-13T14:04:41.092Z,100474.12
2018-09-13T14:07:14.642Z,100468.23
2018-09-13T14:09:47.409Z,100465.91
2018-09-13T14:12:20.019Z,100466.84
2018-09-13T14:14:53.224Z,100470.64
2018-09-13T14:17:25.944Z,100465.88
2018-09-13T14:19:58.658Z,100466.92
2018-09-13T14:22:37.198Z,100466.55
2018-09-13T14:25:12.322Z,100468.88
2018-09-13T14:27:46.381Z,100465.27
2018-09-13T14:30:19.063Z,100464.75
2018-09-13T14:32:51.543Z,100465.21
2018-09-13T14:35:24.589Z,100464.56
2018-09-13T14:37:57.142Z,100459.20
2018-09-13T14:40:30.595Z,100452.77
2018-09-13T14:43:03.524Z,100453.83
2018-09-13T14:45:36.548Z,100449.29
2018-09-13T14:48:09.219Z,100448.50
2018-09-13T14:50:41.899Z,100447.16
2018-09-13T14:53:14.528Z,100443.62
2018-09-13T14:55:49.113Z,100442.54
2018-09-13T14:58:21.853Z,100442.50
2018-09-13T15:00:54.421Z,100441.78
2018-09-13T15:03:27.244Z,100441.89
2018-09-13T15:05:59.988Z,100442.59
2018-09-13T15:08:32.634Z,100445.51
2018-09-13T15:11:05.644Z,100440.66
2018-09-13T15:13:38.353Z,100438.86
2018-09-13T15:16:11.349Z,100440.63
2018-09-13T15:18:44.768Z,100439.89
2018-09-13T15:21:17.475Z,100435.51
2018-09-13T15:23:50.056Z,100439.07
2018-09-13T15:26:22.736Z,100439.59
2018-09-13T15:28:55.267Z,100440.14
2018-09-13T15:31:28.243Z,100443.91
2018-09-13T15:34:00.994Z,100445.85
2018-09-13T15:36:33.689Z,100445.82
2018-09-13T15:39:12.190Z,100450.82
2018-09-13T15:41:44.873Z,100451.38
2018-09-13T15:44:17.877Z,100454.39
2018-09-13T15:46:52.516Z,100457.33
2018-09-13T15:49:25.076Z,100451.64
2018-09-13T15:51:57.702Z,100457.41
2018-09-13T15:54:31.188Z,100455.33
2018-09-13T15:57:03.836Z,100454.20
2018-09-13T15:59:36.675Z,100449.20
2018-09-13T16:02:11.907Z,100444.23
2018-09-13T16:04:44.301Z,100444.63
2018-09-13T16:07:17.267Z,100443.22
2018-09-13T16:09:50.488Z,100439.38
2018-09-13T16:12:23.779Z,100439.55
2018-09-13T16:14:56.565Z,100436.53
2018-09-13T16:17:32.073Z,100439.63
2018-09-13T16:20:04.934Z,100435.50
2018-09-13T16:22:37.520Z,100435.38
2018-09-13T16:25:12.972Z,100431.86
2018-09-13T16:27:45.613Z,100439.66
2018-09-13T16:30:18.070Z,100441.37
2018-09-13T16:32:51.549Z,100432.54
2018-09-13T16:35:25.296Z,100436.75
2018-09-13T16:38:03.650Z,100436.61
2018-09-13T16:40:45.068Z,100432.28
2018-09-13T16:43:37.452Z,100433.66
2018-09-13T16:46:18.067Z,100438.03
2018-09-13T16:48:50.723Z,100436.48
2018-09-13T16:51:23.713Z,100439.58
2018-09-13T16:53:57.013Z,100442.34
2018-09-13T16:56:29.736Z,100446.26
2018-09-13T16:59:02.832Z,100447.72
2018-09-13T17:01:35.435Z,100442.84
2018-09-13T17:04:09.321Z,100445.20
2018-09-13T17:06:42.629Z,100443.17
2018-09-13T17:09:15.446Z,100450.92
2018-09-13T17:11:48.469Z,100446.93
2018-09-13T17:14:22.570Z,100447.18
2018-09-13T17:16:55.303Z,100450.41
2018-09-13T17:19:46.336Z,100447.79
2018-09-13T17:22:20.649Z,100449.91
2018-09-13T17:27:27.722Z,100453.81
2018-09-13T17:30:03.006Z,100454.05
2018-09-13T17:32:35.903Z,100455.61
2018-09-13T17:35:09.166Z,100455.55
2018-09-13T17:37:41.888Z,100459.04
2018-09-13T17:40:14.932Z,100455.94
2018-09-13T17:42:48.724Z,100454.47
2018-09-13T17:45:22.992Z,100460.95
2018-09-13T17:47:55.880Z,100460.13
2018-09-13T17:50:28.898Z,100460.86
2018-09-13T17:53:01.847Z,100459.36
2018-09-13T17:55:35.782Z,100454.77
2018-09-13T17:58:11.931Z,100460.56
2018-09-13T18:00:45.080Z,100457.80
2018-09-13T18:03:19.157Z,100455.15
2018-09-13T18:05:52.275Z,100463.69
2018-09-13T18:08:24.923Z,100460.91
2018-09-13T18:10:58.278Z,100468.27
2018-09-13T18:13:30.911Z,100468.62
2018-09-13T18:16:03.645Z,100473.15
2018-09-13T18:18:36.879Z,100472.56
2018-09-13T18:21:09.827Z,100474.08
2018-09-13T18:23:43.392Z,100473.09
2018-09-13T18:26:16.182Z,100475.44
2018-09-13T18:28:48.769Z,100483.41
2018-09-13T18:31:23.037Z,100489.12
2018-09-13T18:33:56.184Z,100488.37
2018-09-13T18:36:29.833Z,100487.37
2018-09-13T18:39:04.022Z,100494.20
2018-09-13T18:41:40.022Z,100495.77
2018-09-13T18:44:12.692Z,100494.59
2018-09-13T18:46:47.685Z,100497.28
2018-09-13T18:49:24.730Z,100502.20
2018-09-13T18:51:59.889Z,100505.54
2018-09-13T18:54:34.549Z,100506.98
2018-09-13T18:57:08.577Z,100508.05
2018-09-13T18:59:43.275Z,100511.27
2018-09-13T19:02:20.063Z,100516.08
2018-09-13T19:04:56.729Z,100515.56
2018-09-13T19:07:30.872Z,100515.59
2018-09-13T19:10:04.028Z,100515.49
2018-09-13T19:12:38.604Z,100515.83
2018-09-13T19:15:21.297Z,100518.39
2018-09-13T19:17:56.136Z,100518.20
2018-09-13T19:20:29.112Z,100521.42
2018-09-13T19:23:01.819Z,100529.78
2018-09-13T19:25:35.276Z,100529.95
2018-09-13T19:28:12.290Z,100538.36
2018-09-13T19:30:45.318Z,100536.84
2018-09-13T19:33:17.936Z,100539.12
2018-09-13T19:35:52.961Z,100538.78
2018-09-13T19:38:27.290Z,100542.98
2018-09-13T19:41:00.486Z,100540.66
2018-09-13T19:43:36.376Z,100541.90
2018-09-13T19:46:11.006Z,100543.33
2018-09-13T19:48:48.284Z,100549.36
2018-09-13T19:51:20.898Z,100545.13
2018-09-13T19:53:57.366Z,100546.27
2018-09-13T19:56:30.574Z,100549.00
2018-09-13T19:59:05.519Z,100550.30
2018-09-13T20:01:39.645Z,100549.83
2018-09-13T20:04:14.363Z,100551.52
2018-09-13T20:06:47.185Z,100551.05
2018-09-13T20:09:21.710Z,100554.93
2018-09-13T20:11:55.010Z,100552.84
2018-09-13T20:14:29.034Z,100551.34
2018-09-13T20:17:02.149Z,100555.44
2018-09-13T20:19:34.824Z,100554.20
2018-09-13T20:22:11.004Z,100556.45
2018-09-13T20:24:47.980Z,100556.44
2018-09-13T20:27:22.764Z,100556.76
2018-09-13T20:30:00.725Z,100561.69
2018-09-13T20:32:37.963Z,100561.12
2018-09-13T20:35:13.679Z,100557.28
2018-09-13T20:37:48.736Z,100553.42
2018-09-13T20:40:26.352Z,100557.11
2018-09-13T20:42:58.955Z,100557.10
2018-09-13T20:45:32.090Z,100559.27
2018-09-13T20:48:07.029Z,100556.27
2018-09-13T20:50:39.663Z,100556.44
2018-09-13T20:53:15.494Z,100553.17
2018-09-13T20:55:48.011Z,100554.22
2018-09-13T20:58:21.432Z,100548.69
2018-09-13T21:00:55.473Z,100547.17
2018-09-13T21:03:30.836Z,100546.56
2018-09-13T21:06:05.966Z,100546.25
2018-09-13T21:08:39.129Z,100545.99
2018-09-13T21:11:13.954Z,100548.91
2018-09-13T21:13:48.040Z,100555.73
2018-09-13T21:16:22.262Z,100553.64
2018-09-13T21:18:55.664Z,100552.29
2018-09-13T21:21:29.787Z,100560.25
2018-09-13T21:24:03.661Z,100557.50
2018-09-13T21:26:36.231Z,100556.80
2018-09-13T21:29:08.762Z,100555.82
2018-09-13T21:31:41.878Z,100555.97
2018-09-13T21:34:14.471Z,100550.61
2018-09-13T21:36:47.077Z,100555.25
2018-09-13T21:39:21.729Z,100553.33
2018-09-13T21:41:55.021Z,100549.00
2018-09-13T21:44:28.999Z,100548.66
2018-09-13T21:47:04.808Z,100545.67
2018-09-13T21:49:43.316Z,100542.09
2018-09-13T21:52:16.713Z,100546.70
2018-09-13T21:54:52.169Z,100544.75
2018-09-13T21:57:25.637Z,100546.55
2018-09-13T21:59:58.311Z,100548.67
2018-09-13T22:02:33.447Z,100549.81
2018-09-13T22:05:07.431Z,100550.72
2018-09-13T22:07:40.134Z,100552.02
2018-09-13T22:10:13.347Z,100555.33
2018-09-13T22:12:46.032Z,100557.58
2018-09-13T22:15:19.516Z,100561.36
2018-09-13T22:17:52.390Z,100560.86
2018-09-13T22:20:25.139Z,100557.77
2018-09-13T22:22:57.724Z,100566.30
2018-09-13T22:25:31.597Z,100562.99
2018-09-13T22:28:04.262Z,100563.17
2018-09-13T22:30:37.917Z,100564.92
2018-09-13T22:33:18.783Z,100567.18
2018-09-13T22:35:52.908Z,100568.41
2018-09-13T22:38:25.512Z,100570.89
2018-09-13T22:41:00.180Z,100567.96
2018-09-13T22:43:40.645Z,100570.30
2018-09-13T22:46:14.028Z,100581.88
2018-09-13T22:48:47.679Z,100583.75
2018-09-13T22:51:21.640Z,100579.77
2018-09-13T22:53:55.007Z,100581.44
2018-09-13T22:56:29.117Z,100583.05
2018-09-13T22:59:02.556Z,100583.03
2018-09-13T23:01:35.942Z,100585.22
2018-09-13T23:04:16.430Z,100590.70
2018-09-13T23:06:54.661Z,100590.44
2018-09-13T23:13:53.227Z,100588.05
2018-09-13T23:16:26.232Z,100587.99
2018-09-13T23:19:01.028Z,100586.22
2018-09-13T23:21:33.815Z,100588.64
2018-09-13T23:24:06.389Z,100585.25
2018-09-13T23:26:40.352Z,100583.83
2018-09-13T23:29:13.071Z,100589.06
2018-09-13T23:31:45.820Z,100587.86
2018-09-13T23:34:18.768Z,100586.16
2018-09-13T23:36:51.313Z,100582.45
2018-09-13T23:39:24.813Z,100584.97
2018-09-13T23:41:57.671Z,100587.93
2018-09-13T23:44:31.093Z,100587.38
2018-09-13T23:47:03.707Z,100584.06
2018-09-13T23:49:36.724Z,100581.86
2018-09-13T23:52:11.147Z,100585.87
2018-09-13T23:54:44.500Z,100587.88
2018-09-13T23:57:20.173Z,100585.20
2018-09-13T23:59:53.480Z,100579.16
